createdAt,value
2019-03-13T00:00:53.062Z,1.40
2019-03-13T00:04:01.516Z,1.00
2019-03-13T00:06:54.071Z,1.20
2019-03-13T00:09:43.338Z,0.90
2019-03-13T00:12:33.526Z,1.27
2019-03-13T00:15:22.860Z,1.00
2019-03-13T00:18:12.671Z,1.00
2019-03-13T00:21:03.209Z,0.70
2019-03-13T00:23:52.580Z,0.57
2019-03-13T00:26:42.312Z,0.80
2019-03-13T00:29:31.781Z,0.50
2019-03-13T00:32:21.229Z,0.40
2019-03-13T00:34:51.864Z,0.50
2019-03-13T00:37:42.227Z,0.10
2019-03-13T00:40:31.707Z,0.30
2019-03-13T00:43:22.125Z,0.33
2019-03-13T00:46:04.783Z,0.30
2019-03-13T00:48:34.977Z,0.37
2019-03-13T00:51:27.088Z,0.40
2019-03-13T00:54:17.790Z,0.30
2019-03-13T00:57:07.322Z,0.23
2019-03-13T00:59:56.974Z,0.20
2019-03-13T01:02:46.699Z,0.20
2019-03-13T01:05:44.215Z,0.27
2019-03-13T01:08:25.934Z,0.30
2019-03-13T01:11:09.136Z,0.40
2019-03-13T01:16:35.697Z,0.20
2019-03-13T01:19:27.155Z,0.40
2019-03-13T01:21:57.855Z,0.40
2019-03-13T01:27:26.235Z,0.50
2019-03-13T01:29:56.900Z,0.70
2019-03-13T01:35:43.731Z,0.40
2019-03-13T01:38:33.144Z,0.50
2019-03-13T01:41:08.822Z,0.50
2019-03-13T01:43:59.267Z,0.40
2019-03-13T01:46:50.465Z,0.50
2019-03-13T01:49:32.165Z,0.23
2019-03-13T01:52:13.903Z,0.40
2019-03-13T01:54:56.980Z,0.50
2019-03-13T01:57:38.659Z,0.43
2019-03-13T02:00:18.924Z,0.90
2019-03-13T02:06:40.438Z,0.60
2019-03-13T02:09:12.398Z,0.60
2019-03-13T02:11:44.126Z,0.47
2019-03-13T02:14:27.485Z,0.83
2019-03-13T02:17:18.442Z,0.70
2019-03-13T02:23:26.848Z,0.70
2019-03-13T02:26:17.609Z,0.60
2019-03-13T02:29:07.040Z,0.67
2019-03-13T02:31:56.914Z,0.60
2019-03-13T02:34:55.319Z,0.73
2019-03-13T02:37:46.030Z,0.50
2019-03-13T02:40:35.364Z,0.50
2019-03-13T02:46:19.409Z,0.77
2019-03-13T02:51:47.073Z,0.60
2019-03-13T02:54:19.367Z,0.70
2019-03-13T02:56:49.602Z,0.80
2019-03-13T02:59:40.254Z,0.57
2019-03-13T03:02:29.497Z,0.67
2019-03-13T03:05:20.026Z,0.73
2019-03-13T03:07:53.255Z,0.60
2019-03-13T03:10:43.657Z,1.10
2019-03-13T03:13:33.626Z,0.70
2019-03-13T03:16:25.414Z,0.63
2019-03-13T03:19:15.909Z,0.80
2019-03-13T03:24:46.769Z,0.60
2019-03-13T03:27:36.485Z,0.70
2019-03-13T03:33:37.069Z,0.70
2019-03-13T03:36:26.763Z,0.53
2019-03-13T03:39:16.927Z,0.70
2019-03-13T03:45:05.683Z,0.60
2019-03-13T03:47:48.152Z,0.60
2019-03-13T03:50:30.337Z,0.60
2019-03-13T03:55:53.184Z,1.17
2019-03-13T03:58:42.361Z,0.87
2019-03-13T04:01:13.365Z,0.90
2019-03-13T04:04:03.989Z,1.00
2019-03-13T04:06:34.604Z,0.90
2019-03-13T04:09:28.644Z,0.97
2019-03-13T04:12:18.023Z,0.80
2019-03-13T04:15:08.166Z,0.90
2019-03-13T04:17:57.820Z,0.80
2019-03-13T04:20:48.294Z,0.97
2019-03-13T04:23:38.269Z,0.90
2019-03-13T04:26:27.889Z,0.90
2019-03-13T04:29:17.225Z,0.70
2019-03-13T04:32:08.213Z,0.80
2019-03-13T04:34:57.732Z,0.90
2019-03-13T04:37:46.969Z,0.90
2019-03-13T04:40:36.849Z,0.97
2019-03-13T04:43:28.121Z,0.80
2019-03-13T04:46:17.664Z,0.97
2019-03-13T04:49:09.078Z,0.90
2019-03-13T04:51:50.548Z,0.90
2019-03-13T04:54:32.047Z,1.00
2019-03-13T04:59:41.764Z,0.87
2019-03-13T05:02:31.042Z,0.90
2019-03-13T05:05:39.249Z,0.90
2019-03-13T05:08:44.601Z,1.20
2019-03-13T05:11:24.399Z,0.90
2019-03-13T05:14:14.596Z,1.00
2019-03-13T05:17:03.874Z,1.00
2019-03-13T05:19:45.283Z,1.03
2019-03-13T05:22:15.756Z,0.90
2019-03-13T05:25:05.621Z,1.00
2019-03-13T05:27:35.762Z,0.80
2019-03-13T05:30:24.990Z,0.90
2019-03-13T05:32:55.523Z,0.90
2019-03-13T05:35:45.015Z,0.97
2019-03-13T05:38:15.240Z,0.73
2019-03-13T05:40:46.680Z,1.00
2019-03-13T05:43:17.136Z,1.23
2019-03-13T05:45:47.594Z,0.90
2019-03-13T05:48:17.912Z,0.77
2019-03-13T05:50:59.546Z,1.00
2019-03-13T05:53:41.158Z,2.73
2019-03-13T05:56:11.678Z,1.30
2019-03-13T05:59:02.907Z,1.40
2019-03-13T06:01:52.421Z,1.00
2019-03-13T06:04:22.677Z,0.90
2019-03-13T06:07:12.199Z,1.10
2019-03-13T06:10:01.636Z,1.00
2019-03-13T06:12:52.324Z,0.70
2019-03-13T06:15:22.600Z,1.17
2019-03-13T06:17:52.756Z,1.00
2019-03-13T06:20:22.936Z,1.50
2019-03-13T06:23:12.512Z,0.80
2019-03-13T06:26:01.780Z,1.00
2019-03-13T06:28:32.342Z,0.80
2019-03-13T06:31:02.533Z,0.90
2019-03-13T06:33:51.950Z,0.80
2019-03-13T06:36:22.103Z,0.80
2019-03-13T06:39:11.743Z,0.70
2019-03-13T06:41:42.065Z,0.90
2019-03-13T06:44:12.647Z,0.67
2019-03-13T06:47:07.533Z,0.90
2019-03-13T06:49:58.538Z,0.80
2019-03-13T06:55:12.058Z,0.97
2019-03-13T06:57:42.401Z,0.80
2019-03-13T07:00:50.793Z,0.97
2019-03-13T07:03:39.930Z,0.70
2019-03-13T07:06:27.820Z,1.10
2019-03-13T07:09:17.132Z,1.10
2019-03-13T07:12:28.342Z,1.70
2019-03-13T07:15:39.483Z,1.53
2019-03-13T07:18:34.414Z,0.93
2019-03-13T07:21:23.758Z,0.73
2019-03-13T07:24:12.902Z,0.87
2019-03-13T07:26:47.800Z,1.27
2019-03-13T07:29:30.701Z,1.10
2019-03-13T07:32:22.908Z,1.10
2019-03-13T07:35:34.211Z,0.60
2019-03-13T07:38:23.276Z,0.73
2019-03-13T07:41:00.156Z,1.27
2019-03-13T07:43:49.233Z,0.67
2019-03-13T07:46:38.628Z,0.80
2019-03-13T07:49:27.680Z,0.60
2019-03-13T07:52:16.885Z,0.90
2019-03-13T07:55:06.582Z,0.70
2019-03-13T07:57:57.074Z,0.80
2019-03-13T08:03:49.238Z,0.80
2019-03-13T08:06:38.258Z,0.77
2019-03-13T08:09:46.720Z,1.10
2019-03-13T08:12:55.076Z,0.90
2019-03-13T08:15:59.822Z,0.77
2019-03-13T08:18:50.614Z,0.90
2019-03-13T08:21:48.564Z,0.83
2019-03-13T08:24:57.655Z,0.67
2019-03-13T08:28:07.167Z,0.80
2019-03-13T08:30:56.583Z,0.80
2019-03-13T08:33:46.020Z,0.70
2019-03-13T08:36:23.488Z,1.00
2019-03-13T08:39:12.645Z,0.80
2019-03-13T08:41:58.701Z,0.60
2019-03-13T08:45:15.573Z,1.00
2019-03-13T08:48:04.702Z,0.90
2019-03-13T08:50:51.208Z,0.77
2019-03-13T08:53:59.347Z,0.87
2019-03-13T08:57:07.766Z,0.60
2019-03-13T09:00:15.818Z,0.93
2019-03-13T09:03:24.468Z,1.10
2019-03-13T09:06:11.947Z,0.70
2019-03-13T09:11:55.019Z,0.80
2019-03-13T09:14:43.904Z,0.60
2019-03-13T09:17:27.298Z,0.77
2019-03-13T09:20:19.577Z,0.80
2019-03-13T09:23:18.337Z,0.93
2019-03-13T09:26:07.368Z,1.00
2019-03-13T09:29:15.507Z,0.93
2019-03-13T09:32:23.616Z,1.57
2019-03-13T09:35:31.724Z,0.80
2019-03-13T09:38:40.416Z,0.73
2019-03-13T09:41:32.182Z,0.63
2019-03-13T09:44:21.285Z,0.60
2019-03-13T09:47:29.501Z,0.77
2019-03-13T09:50:18.578Z,0.80
2019-03-13T09:53:08.434Z,0.50
2019-03-13T09:56:16.585Z,0.80
2019-03-13T09:59:17.353Z,0.70
2019-03-13T10:02:17.349Z,0.73
2019-03-13T10:05:25.558Z,1.10
2019-03-13T10:08:33.656Z,1.00
2019-03-13T10:11:43.879Z,0.80
2019-03-13T10:14:51.995Z,0.97
2019-03-13T10:18:00.384Z,0.80
2019-03-13T10:21:08.504Z,1.10
2019-03-13T10:24:16.907Z,1.10
2019-03-13T10:27:25.024Z,1.00
2019-03-13T10:30:04.267Z,0.63
2019-03-13T10:33:12.752Z,1.13
2019-03-13T10:36:20.807Z,0.80
2019-03-13T10:39:10.276Z,0.77
2019-03-13T10:42:10.403Z,0.77
2019-03-13T10:45:18.801Z,1.10
2019-03-13T10:48:26.890Z,1.10
2019-03-13T10:51:16.360Z,1.03
2019-03-13T10:54:24.513Z,1.00
2019-03-13T10:57:24.712Z,0.90
2019-03-13T11:00:25.287Z,0.90
2019-03-13T11:03:14.363Z,0.77
2019-03-13T11:06:22.761Z,1.00
2019-03-13T11:09:28.667Z,0.77
2019-03-13T11:12:37.433Z,0.80
2019-03-13T11:15:27.143Z,1.27
2019-03-13T11:18:26.464Z,1.07
2019-03-13T11:21:15.539Z,1.10
2019-03-13T11:24:24.207Z,0.70
2019-03-13T11:27:13.578Z,1.27
2019-03-13T11:30:24.043Z,0.77
2019-03-13T11:33:51.164Z,0.70
2019-03-13T11:36:50.331Z,1.00
2019-03-13T11:39:39.481Z,1.10
2019-03-13T11:42:48.683Z,1.33
2019-03-13T11:45:37.780Z,1.00
2019-03-13T11:48:44.957Z,1.50
2019-03-13T11:51:53.294Z,0.87
2019-03-13T11:55:01.488Z,0.90
2019-03-13T11:58:09.622Z,0.80
2019-03-13T12:01:17.790Z,0.47
2019-03-13T12:04:25.982Z,1.03
2019-03-13T12:07:35.185Z,0.70
2019-03-13T12:10:25.362Z,1.37
2019-03-13T12:13:22.624Z,1.20
2019-03-13T12:15:58.600Z,1.17
2019-03-13T12:19:06.708Z,1.20
2019-03-13T12:21:57.818Z,1.07
2019-03-13T12:28:06.237Z,1.20
2019-03-13T12:30:45.134Z,1.00
2019-03-13T12:33:37.024Z,1.40
2019-03-13T12:36:29.802Z,1.47
2019-03-13T12:39:19.031Z,1.23
2019-03-13T12:44:44.929Z,1.20
2019-03-13T12:47:45.955Z,1.00
2019-03-13T12:59:16.693Z,1.10
2019-03-13T13:02:09.011Z,1.20
2019-03-13T13:05:04.743Z,1.10
2019-03-13T13:07:53.896Z,1.20
2019-03-13T13:11:03.255Z,1.13
2019-03-13T13:13:52.342Z,1.27
2019-03-13T13:17:00.501Z,1.00
2019-03-13T13:19:50.309Z,1.20
2019-03-13T13:22:40.236Z,0.90
2019-03-13T13:25:10.709Z,1.10
2019-03-13T13:28:01.261Z,1.10
2019-03-13T13:30:51.210Z,1.10
2019-03-13T13:33:40.933Z,1.20
2019-03-13T13:36:11.698Z,1.70
2019-03-13T13:38:42.195Z,0.90
2019-03-13T13:41:24.442Z,1.23
2019-03-13T13:43:54.830Z,1.10
2019-03-13T13:46:44.783Z,0.90
2019-03-13T13:49:35.672Z,1.00
2019-03-13T13:52:27.556Z,1.07
2019-03-13T14:01:16.163Z,1.20
2019-03-13T14:03:47.878Z,1.20
2019-03-13T14:06:19.956Z,1.20
2019-03-13T14:08:52.147Z,1.10
2019-03-13T14:11:22.382Z,1.10
2019-03-13T14:14:11.801Z,1.87
2019-03-13T14:16:41.950Z,0.93
2019-03-13T14:19:31.218Z,0.87
2019-03-13T14:22:22.143Z,1.03
2019-03-13T14:24:52.277Z,1.30
2019-03-13T14:27:41.820Z,0.90
2019-03-13T14:33:27.755Z,1.00
2019-03-13T14:35:58.450Z,1.00
2019-03-13T14:38:29.803Z,1.10
2019-03-13T14:41:01.775Z,1.03
2019-03-13T14:43:32.454Z,0.80
2019-03-13T14:46:03.241Z,0.97
2019-03-13T14:48:52.945Z,1.07
2019-03-13T14:51:42.429Z,1.10
2019-03-13T14:54:12.838Z,1.13
2019-03-13T14:56:43.415Z,1.20
2019-03-13T14:59:33.456Z,1.13
2019-03-13T15:02:22.674Z,1.23
2019-03-13T15:05:12.784Z,1.13
2019-03-13T15:07:46.530Z,0.83
2019-03-13T15:10:36.556Z,1.10
2019-03-13T15:15:46.901Z,1.00
2019-03-13T15:18:36.563Z,1.23
2019-03-13T15:21:25.918Z,1.53
2019-03-13T15:23:59.627Z,1.07
2019-03-13T15:26:48.858Z,0.97
2019-03-13T15:29:38.401Z,1.17
2019-03-13T15:32:20.503Z,0.83
2019-03-13T15:35:01.884Z,0.77
2019-03-13T15:37:44.778Z,1.20
2019-03-13T15:40:26.225Z,1.17
2019-03-13T15:43:10.237Z,1.10
2019-03-13T15:45:52.008Z,0.90
2019-03-13T15:48:22.909Z,1.20
2019-03-13T15:54:08.820Z,0.90
2019-03-13T15:56:58.130Z,1.27
2019-03-13T16:00:06.675Z,1.40
2019-03-13T16:02:56.342Z,1.00
2019-03-13T16:05:28.741Z,1.20
2019-03-13T16:08:18.378Z,1.13
2019-03-13T16:11:08.184Z,1.20
2019-03-13T16:13:38.358Z,1.50
2019-03-13T16:16:27.872Z,1.53
2019-03-13T16:19:17.067Z,1.40
2019-03-13T16:22:07.569Z,1.10
2019-03-13T16:24:56.901Z,1.20
2019-03-13T16:27:46.105Z,1.47
2019-03-13T16:30:40.477Z,0.73
2019-03-13T16:33:10.736Z,1.20
2019-03-13T16:35:41.151Z,1.20
2019-03-13T16:38:11.345Z,1.27
2019-03-13T16:40:41.561Z,1.53
2019-03-13T16:43:23.079Z,1.30
2019-03-13T16:45:53.350Z,1.13
2019-03-13T16:48:42.571Z,1.17
2019-03-13T16:51:31.934Z,1.00
2019-03-13T16:54:22.950Z,1.20
2019-03-13T16:56:53.353Z,1.50
2019-03-13T17:00:00.050Z,1.33
2019-03-13T17:02:36.474Z,1.33
2019-03-13T17:08:03.372Z,1.10
2019-03-13T17:10:44.742Z,1.03
2019-03-13T17:13:26.291Z,1.43
2019-03-13T17:16:08.057Z,1.30
2019-03-13T17:18:51.685Z,1.47
2019-03-13T17:21:33.649Z,1.37
2019-03-13T17:24:15.624Z,1.60
2019-03-13T17:26:46.163Z,1.47
2019-03-13T17:29:16.873Z,0.90
2019-03-13T17:32:07.353Z,1.17
2019-03-13T17:34:40.794Z,1.20
2019-03-13T17:37:12.523Z,1.37
2019-03-13T17:40:02.267Z,1.30
2019-03-13T17:42:36.728Z,1.30
2019-03-13T17:45:08.771Z,1.30
2019-03-13T17:47:58.296Z,1.10
2019-03-13T17:50:49.285Z,1.20
2019-03-13T17:53:41.085Z,1.20
2019-03-13T17:56:12.948Z,1.40
2019-03-13T17:59:04.356Z,1.40
2019-03-13T18:02:12.433Z,1.33
2019-03-13T18:05:02.061Z,1.60
2019-03-13T18:07:46.109Z,1.40
2019-03-13T18:10:27.523Z,1.40
2019-03-13T18:13:08.919Z,1.60
2019-03-13T18:15:51.509Z,1.20
2019-03-13T18:18:32.715Z,1.27
2019-03-13T18:21:02.961Z,1.43
2019-03-13T18:23:52.186Z,1.30
2019-03-13T18:26:22.421Z,1.27
2019-03-13T18:28:52.620Z,1.87
2019-03-13T18:31:41.859Z,3.77
2019-03-13T18:34:12.063Z,2.17
2019-03-13T18:37:01.591Z,1.67
2019-03-13T18:39:31.760Z,2.87
2019-03-13T18:42:20.954Z,1.90
2019-03-13T18:45:04.152Z,1.50
2019-03-13T18:47:34.508Z,2.10
2019-03-13T18:50:23.777Z,1.50
2019-03-13T18:53:13.139Z,1.37
2019-03-13T18:56:02.780Z,1.40
2019-03-13T18:58:35.056Z,1.70
2019-03-13T19:01:08.305Z,1.20
2019-03-13T19:03:59.158Z,1.33
2019-03-13T19:06:50.063Z,1.30
2019-03-13T19:09:22.878Z,1.53
2019-03-13T19:11:53.192Z,1.40
2019-03-13T19:14:24.960Z,1.20
2019-03-13T19:17:14.355Z,1.50
2019-03-13T19:20:05.420Z,1.40
2019-03-13T19:22:37.239Z,1.80
2019-03-13T19:25:09.048Z,1.60
2019-03-13T19:28:00.186Z,1.83
2019-03-13T19:33:31.429Z,2.50
2019-03-13T19:36:02.451Z,1.80
2019-03-13T19:38:54.026Z,1.83
2019-03-13T19:41:33.350Z,2.17
2019-03-13T19:44:07.138Z,3.00
2019-03-13T19:46:56.856Z,2.00
2019-03-13T19:49:48.678Z,1.70
2019-03-13T19:52:39.314Z,1.70
2019-03-13T19:55:28.688Z,1.93
2019-03-13T19:57:59.565Z,1.67
2019-03-13T20:00:29.924Z,2.30
2019-03-13T20:03:01.050Z,1.60
2019-03-13T20:05:44.173Z,1.60
2019-03-13T20:08:03.516Z,1.77
2019-03-13T20:10:44.834Z,1.70
2019-03-13T20:13:28.174Z,1.93
2019-03-13T20:16:08.252Z,1.60
2019-03-13T20:18:38.830Z,1.60
2019-03-13T20:21:31.133Z,1.80
2019-03-13T20:24:23.035Z,1.90
2019-03-13T20:27:14.684Z,1.40
2019-03-13T20:30:05.485Z,1.93
2019-03-13T20:32:35.846Z,1.53
2019-03-13T20:35:07.285Z,1.60
2019-03-13T20:37:40.956Z,1.97
2019-03-13T20:40:39.830Z,1.63
2019-03-13T20:43:29.245Z,1.90
2019-03-13T20:46:20.746Z,1.73
2019-03-13T20:51:28.375Z,1.70
2019-03-13T20:56:36.716Z,1.47
2019-03-13T21:01:45.660Z,1.40
2019-03-13T21:04:35.200Z,1.50
2019-03-13T21:07:06.328Z,1.47
2019-03-13T21:12:44.153Z,1.47
2019-03-13T21:15:33.395Z,1.23
2019-03-13T21:18:06.350Z,1.37
2019-03-13T21:20:56.150Z,1.20
2019-03-13T21:23:28.883Z,1.57
2019-03-13T21:26:00.097Z,1.50
2019-03-13T21:28:52.023Z,1.40
2019-03-13T21:31:43.217Z,1.50
2019-03-13T21:34:33.209Z,1.37
2019-03-13T21:37:24.402Z,1.37
2019-03-13T21:39:54.750Z,1.80
2019-03-13T21:43:04.275Z,1.57
2019-03-13T21:45:46.839Z,1.23
2019-03-13T21:48:30.636Z,1.67
2019-03-13T21:51:12.981Z,1.30
2019-03-13T21:53:54.692Z,1.67
2019-03-13T21:56:26.336Z,1.97
2019-03-13T21:59:15.550Z,2.23
2019-03-13T22:05:24.994Z,1.90
2019-03-13T22:08:06.078Z,2.07
2019-03-13T22:10:55.624Z,1.87
2019-03-13T22:13:37.598Z,1.73
2019-03-13T22:16:08.654Z,2.00
2019-03-13T22:18:58.181Z,2.03
2019-03-13T22:21:47.376Z,1.00
2019-03-13T22:31:02.947Z,1.47
2019-03-13T22:33:53.030Z,1.30
2019-03-13T22:36:42.266Z,1.10
2019-03-13T22:39:31.696Z,1.20
2019-03-13T22:42:21.565Z,1.43
2019-03-13T22:45:13.470Z,1.20
2019-03-13T22:48:03.349Z,1.20
2019-03-13T22:50:52.929Z,1.20
2019-03-13T22:53:42.174Z,0.87
2019-03-13T22:56:12.304Z,0.97
2019-03-13T22:59:01.667Z,1.13
2019-03-13T23:01:31.956Z,1.20
2019-03-13T23:04:08.527Z,1.13
2019-03-13T23:06:57.751Z,1.30
2019-03-13T23:09:50.853Z,1.40
2019-03-13T23:12:59.169Z,1.80
2019-03-13T23:15:39.470Z,1.53
2019-03-13T23:18:29.210Z,1.43
2019-03-13T23:20:59.501Z,1.50
2019-03-13T23:23:29.820Z,2.07
2019-03-13T23:26:19.220Z,1.50
2019-03-13T23:29:02.177Z,1.40
2019-03-13T23:31:43.387Z,1.53
2019-03-13T23:37:05.334Z,1.33
2019-03-13T23:42:32.989Z,1.50
2019-03-13T23:47:56.232Z,1.60
2019-03-13T23:50:45.734Z,1.60
2019-03-13T23:53:34.929Z,1.30
2019-03-13T23:56:05.157Z,1.30
2019-03-13T23:58:54.419Z,1.30
